sensor_id;sensor_type;location;lat;lon;timestamp;temperature;humidity
41928;DHT22;27616;51.420;6.788;2022-08-03T00:02:17;21.50;99.80
41928;DHT22;27616;51.420;6.788;2022-08-03T00:04:43;21.50;99.90
41928;DHT22;27616;51.420;6.788;2022-08-03T00:07:09;21.50;99.90
41928;DHT22;27616;51.420;6.788;2022-08-03T00:09:34;21.50;99.90
41928;DHT22;27616;51.420;6.788;2022-08-03T00:12:00;21.50;99.90
41928;DHT22;27616;51.420;6.788;2022-08-03T00:14:26;21.50;99.90
41928;DHT22;27616;51.420;6.788;2022-08-03T00:16:51;21.50;99.90
41928;DHT22;27616;51.420;6.788;2022-08-03T00:19:17;21.50;99.90
41928;DHT22;27616;51.420;6.788;2022-08-03T00:21:43;21.50;99.90
41928;DHT22;27616;51.420;6.788;2022-08-03T00:24:08;21.40;99.90
41928;DHT22;27616;51.420;6.788;2022-08-03T00:26:34;21.40;99.90
41928;DHT22;27616;51.420;6.788;2022-08-03T00:29:00;21.40;99.90
41928;DHT22;27616;51.420;6.788;2022-08-03T00:31:25;21.40;99.90
41928;DHT22;27616;51.420;6.788;2022-08-03T00:33:51;21.40;99.90
41928;DHT22;27616;51.420;6.788;2022-08-03T00:36:17;21.30;99.90
41928;DHT22;27616;51.420;6.788;2022-08-03T00:38:43;21.30;99.90
41928;DHT22;27616;51.420;6.788;2022-08-03T00:41:09;21.30;99.90
41928;DHT22;27616;51.420;6.788;2022-08-03T00:43:35;21.30;99.90
41928;DHT22;27616;51.420;6.788;2022-08-03T00:46:01;21.20;99.90
41928;DHT22;27616;51.420;6.788;2022-08-03T00:48:27;21.20;99.90
41928;DHT22;27616;51.420;6.788;2022-08-03T00:50:53;21.20;99.90
41928;DHT22;27616;51.420;6.788;2022-08-03T00:53:19;21.20;99.90
41928;DHT22;27616;51.420;6.788;2022-08-03T00:55:45;21.20;99.90
41928;DHT22;27616;51.420;6.788;2022-08-03T00:58:11;21.30;99.90
41928;DHT22;27616;51.420;6.788;2022-08-03T01:00:39;21.30;99.90
41928;DHT22;27616;51.420;6.788;2022-08-03T01:03:07;21.30;99.90
41928;DHT22;27616;51.420;6.788;2022-08-03T01:06:40;21.30;99.90
41928;DHT22;27616;51.420;6.788;2022-08-03T01:14:38;21.40;99.90
41928;DHT22;27616;51.420;6.788;2022-08-03T01:17:19;21.40;99.90
41928;DHT22;27616;51.420;6.788;2022-08-03T01:19:58;21.40;99.90
41928;DHT22;27616;51.420;6.788;2022-08-03T01:25:11;21.40;99.90
41928;DHT22;27616;51.420;6.788;2022-08-03T01:27:50;21.40;99.90
41928;DHT22;27616;51.420;6.788;2022-08-03T01:30:19;21.40;99.90
41928;DHT22;27616;51.420;6.788;2022-08-03T01:32:56;21.40;99.90
41928;DHT22;27616;51.420;6.788;2022-08-03T01:35:59;21.40;99.90
41928;DHT22;27616;51.420;6.788;2022-08-03T01:38:48;21.40;99.90
41928;DHT22;27616;51.420;6.788;2022-08-03T01:41:25;21.40;99.90
41928;DHT22;27616;51.420;6.788;2022-08-03T01:43:54;21.30;99.90
41928;DHT22;27616;51.420;6.788;2022-08-03T01:46:22;21.30;99.90
41928;DHT22;27616;51.420;6.788;2022-08-03T01:48:50;21.20;99.90
41928;DHT22;27616;51.420;6.788;2022-08-03T01:51:18;21.20;99.90
41928;DHT22;27616;51.420;6.788;2022-08-03T01:53:46;21.20;99.90
41928;DHT22;27616;51.420;6.788;2022-08-03T01:56:13;21.20;99.90
41928;DHT22;27616;51.420;6.788;2022-08-03T01:58:42;21.10;99.90
41928;DHT22;27616;51.420;6.788;2022-08-03T02:01:09;21.10;99.90
41928;DHT22;27616;51.420;6.788;2022-08-03T02:03:39;21.10;99.90
41928;DHT22;27616;51.420;6.788;2022-08-03T02:06:09;21.00;99.90
41928;DHT22;27616;51.420;6.788;2022-08-03T02:08:38;21.00;99.90
41928;DHT22;27616;51.420;6.788;2022-08-03T02:11:04;21.00;99.90
41928;DHT22;27616;51.420;6.788;2022-08-03T02:13:33;21.00;99.90
41928;DHT22;27616;51.420;6.788;2022-08-03T02:16:03;20.90;99.90
41928;DHT22;27616;51.420;6.788;2022-08-03T02:18:31;20.90;99.90
41928;DHT22;27616;51.420;6.788;2022-08-03T02:21:00;20.80;99.90
41928;DHT22;27616;51.420;6.788;2022-08-03T02:23:27;20.80;99.90
41928;DHT22;27616;51.420;6.788;2022-08-03T02:25:57;20.80;99.90
41928;DHT22;27616;51.420;6.788;2022-08-03T02:28:33;20.70;99.90
41928;DHT22;27616;51.420;6.788;2022-08-03T02:31:04;20.70;99.90
41928;DHT22;27616;51.420;6.788;2022-08-03T02:33:35;20.60;99.90
41928;DHT22;27616;51.420;6.788;2022-08-03T02:36:04;20.70;99.90
41928;DHT22;27616;51.420;6.788;2022-08-03T02:38:34;20.60;99.90
41928;DHT22;27616;51.420;6.788;2022-08-03T02:41:03;20.70;99.90
41928;DHT22;27616;51.420;6.788;2022-08-03T02:43:34;20.70;99.90
41928;DHT22;27616;51.420;6.788;2022-08-03T02:46:01;20.70;99.90
41928;DHT22;27616;51.420;6.788;2022-08-03T02:48:28;20.60;99.90
41928;DHT22;27616;51.420;6.788;2022-08-03T02:50:57;20.60;99.90
41928;DHT22;27616;51.420;6.788;2022-08-03T02:53:24;20.60;99.90
41928;DHT22;27616;51.420;6.788;2022-08-03T02:55:52;20.60;99.90
41928;DHT22;27616;51.420;6.788;2022-08-03T02:58:20;20.60;99.90
41928;DHT22;27616;51.420;6.788;2022-08-03T03:00:49;20.50;99.90
41928;DHT22;27616;51.420;6.788;2022-08-03T03:03:17;20.50;99.90
41928;DHT22;27616;51.420;6.788;2022-08-03T03:05:43;20.50;99.90
41928;DHT22;27616;51.420;6.788;2022-08-03T03:08:15;20.50;99.90
41928;DHT22;27616;51.420;6.788;2022-08-03T03:10:42;20.50;99.90
41928;DHT22;27616;51.420;6.788;2022-08-03T03:13:09;20.50;99.90
41928;DHT22;27616;51.420;6.788;2022-08-03T03:15:37;20.50;99.90
41928;DHT22;27616;51.420;6.788;2022-08-03T03:18:04;20.40;99.90
41928;DHT22;27616;51.420;6.788;2022-08-03T03:20:32;20.40;99.90
41928;DHT22;27616;51.420;6.788;2022-08-03T03:23:00;20.40;99.90
41928;DHT22;27616;51.420;6.788;2022-08-03T03:25:31;20.40;99.90
41928;DHT22;27616;51.420;6.788;2022-08-03T03:28:01;20.40;99.90
41928;DHT22;27616;51.420;6.788;2022-08-03T03:30:28;20.40;99.90
41928;DHT22;27616;51.420;6.788;2022-08-03T03:32:57;20.30;99.90
41928;DHT22;27616;51.420;6.788;2022-08-03T03:35:24;20.30;99.90
41928;DHT22;27616;51.420;6.788;2022-08-03T03:37:51;20.40;99.90
41928;DHT22;27616;51.420;6.788;2022-08-03T03:40:17;20.40;99.90
41928;DHT22;27616;51.420;6.788;2022-08-03T03:42:44;20.40;99.90
41928;DHT22;27616;51.420;6.788;2022-08-03T03:45:10;20.40;99.90
41928;DHT22;27616;51.420;6.788;2022-08-03T03:47:37;20.40;99.90
41928;DHT22;27616;51.420;6.788;2022-08-03T03:50:04;20.40;99.90
41928;DHT22;27616;51.420;6.788;2022-08-03T03:52:33;20.40;99.90
41928;DHT22;27616;51.420;6.788;2022-08-03T03:54:59;20.40;99.90
41928;DHT22;27616;51.420;6.788;2022-08-03T03:57:25;20.40;99.90
41928;DHT22;27616;51.420;6.788;2022-08-03T03:59:51;20.40;99.90
41928;DHT22;27616;51.420;6.788;2022-08-03T04:02:17;20.40;99.90
41928;DHT22;27616;51.420;6.788;2022-08-03T04:04:43;20.40;99.90
41928;DHT22;27616;51.420;6.788;2022-08-03T04:07:31;20.40;99.90
41928;DHT22;27616;51.420;6.788;2022-08-03T04:10:21;20.40;99.90
41928;DHT22;27616;51.420;6.788;2022-08-03T04:13:08;20.50;99.90
41928;DHT22;27616;51.420;6.788;2022-08-03T04:15:37;20.40;99.90
41928;DHT22;27616;51.420;6.788;2022-08-03T04:18:06;20.40;99.90
41928;DHT22;27616;51.420;6.788;2022-08-03T04:20:34;20.50;99.90
41928;DHT22;27616;51.420;6.788;2022-08-03T04:23:02;20.50;99.90
41928;DHT22;27616;51.420;6.788;2022-08-03T04:25:32;20.50;99.90
41928;DHT22;27616;51.420;6.788;2022-08-03T04:28:00;20.50;99.90
41928;DHT22;27616;51.420;6.788;2022-08-03T04:30:27;20.60;99.90
41928;DHT22;27616;51.420;6.788;2022-08-03T04:32:57;20.60;99.90
41928;DHT22;27616;51.420;6.788;2022-08-03T04:35:24;20.60;99.90
41928;DHT22;27616;51.420;6.788;2022-08-03T04:37:54;20.60;99.90
41928;DHT22;27616;51.420;6.788;2022-08-03T04:40:26;20.70;99.90
41928;DHT22;27616;51.420;6.788;2022-08-03T04:42:53;20.70;99.90
41928;DHT22;27616;51.420;6.788;2022-08-03T04:45:21;20.70;99.90
41928;DHT22;27616;51.420;6.788;2022-08-03T04:47:48;20.80;99.90
41928;DHT22;27616;51.420;6.788;2022-08-03T04:50:15;20.80;99.90
41928;DHT22;27616;51.420;6.788;2022-08-03T04:53:01;20.80;99.90
41928;DHT22;27616;51.420;6.788;2022-08-03T04:55:32;20.90;99.90
41928;DHT22;27616;51.420;6.788;2022-08-03T04:57:59;20.90;99.90
41928;DHT22;27616;51.420;6.788;2022-08-03T05:00:25;20.90;99.90
41928;DHT22;27616;51.420;6.788;2022-08-03T05:02:51;20.90;99.90
41928;DHT22;27616;51.420;6.788;2022-08-03T05:05:18;20.90;99.90
41928;DHT22;27616;51.420;6.788;2022-08-03T05:07:45;20.90;99.90
41928;DHT22;27616;51.420;6.788;2022-08-03T05:10:11;20.90;99.90
41928;DHT22;27616;51.420;6.788;2022-08-03T05:12:38;20.90;99.90
41928;DHT22;27616;51.420;6.788;2022-08-03T05:15:05;20.90;99.90
41928;DHT22;27616;51.420;6.788;2022-08-03T05:17:31;20.90;99.90
41928;DHT22;27616;51.420;6.788;2022-08-03T05:19:59;20.90;99.90
41928;DHT22;27616;51.420;6.788;2022-08-03T05:22:25;20.90;99.90
41928;DHT22;27616;51.420;6.788;2022-08-03T05:24:51;20.90;99.90
41928;DHT22;27616;51.420;6.788;2022-08-03T05:27:17;21.00;99.90
41928;DHT22;27616;51.420;6.788;2022-08-03T05:29:48;21.00;99.90
41928;DHT22;27616;51.420;6.788;2022-08-03T05:32:16;21.00;99.90
41928;DHT22;27616;51.420;6.788;2022-08-03T05:34:42;21.10;99.90
41928;DHT22;27616;51.420;6.788;2022-08-03T05:37:09;21.10;99.90
41928;DHT22;27616;51.420;6.788;2022-08-03T05:39:35;21.20;99.90
41928;DHT22;27616;51.420;6.788;2022-08-03T05:42:01;21.20;99.90
41928;DHT22;27616;51.420;6.788;2022-08-03T05:44:28;21.20;99.90
41928;DHT22;27616;51.420;6.788;2022-08-03T05:46:54;21.20;99.90
41928;DHT22;27616;51.420;6.788;2022-08-03T05:49:20;21.30;99.90
41928;DHT22;27616;51.420;6.788;2022-08-03T05:51:46;21.30;99.90
41928;DHT22;27616;51.420;6.788;2022-08-03T05:54:12;21.30;99.90
41928;DHT22;27616;51.420;6.788;2022-08-03T05:56:38;21.40;99.90
41928;DHT22;27616;51.420;6.788;2022-08-03T05:59:05;21.40;99.90
41928;DHT22;27616;51.420;6.788;2022-08-03T06:01:31;21.40;99.90
41928;DHT22;27616;51.420;6.788;2022-08-03T06:03:58;21.50;99.90
41928;DHT22;27616;51.420;6.788;2022-08-03T06:06:24;21.50;99.90
41928;DHT22;27616;51.420;6.788;2022-08-03T06:08:50;21.60;99.90
41928;DHT22;27616;51.420;6.788;2022-08-03T06:11:16;21.70;99.90
41928;DHT22;27616;51.420;6.788;2022-08-03T06:13:42;21.70;99.90
41928;DHT22;27616;51.420;6.788;2022-08-03T06:16:09;21.70;99.90
41928;DHT22;27616;51.420;6.788;2022-08-03T06:18:35;21.80;99.90
41928;DHT22;27616;51.420;6.788;2022-08-03T06:21:01;21.80;99.90
41928;DHT22;27616;51.420;6.788;2022-08-03T06:23:27;21.80;99.90
41928;DHT22;27616;51.420;6.788;2022-08-03T06:25:53;21.90;99.90
41928;DHT22;27616;51.420;6.788;2022-08-03T06:28:19;21.90;99.90
41928;DHT22;27616;51.420;6.788;2022-08-03T06:30:45;21.90;99.90
41928;DHT22;27616;51.420;6.788;2022-08-03T06:33:11;22.00;99.90
41928;DHT22;27616;51.420;6.788;2022-08-03T06:35:37;22.00;99.90
41928;DHT22;27616;51.420;6.788;2022-08-03T06:38:03;22.10;99.90
41928;DHT22;27616;51.420;6.788;2022-08-03T06:40:29;22.10;99.90
41928;DHT22;27616;51.420;6.788;2022-08-03T06:42:57;22.10;99.90
41928;DHT22;27616;51.420;6.788;2022-08-03T06:45:24;22.20;99.90
41928;DHT22;27616;51.420;6.788;2022-08-03T06:48:05;22.20;99.90
41928;DHT22;27616;51.420;6.788;2022-08-03T06:50:32;22.30;99.90
41928;DHT22;27616;51.420;6.788;2022-08-03T06:52:59;22.30;99.90
41928;DHT22;27616;51.420;6.788;2022-08-03T06:55:26;22.30;99.90
41928;DHT22;27616;51.420;6.788;2022-08-03T06:57:52;22.40;99.90
41928;DHT22;27616;51.420;6.788;2022-08-03T07:00:18;22.40;99.90
41928;DHT22;27616;51.420;6.788;2022-08-03T07:02:44;22.40;99.90
41928;DHT22;27616;51.420;6.788;2022-08-03T07:05:11;22.40;99.90
41928;DHT22;27616;51.420;6.788;2022-08-03T07:07:38;22.50;99.90
41928;DHT22;27616;51.420;6.788;2022-08-03T07:10:05;22.50;99.90
41928;DHT22;27616;51.420;6.788;2022-08-03T07:12:32;22.50;99.90
41928;DHT22;27616;51.420;6.788;2022-08-03T07:14:59;22.60;99.90
41928;DHT22;27616;51.420;6.788;2022-08-03T07:17:26;22.60;99.90
41928;DHT22;27616;51.420;6.788;2022-08-03T07:19:52;22.60;99.90
41928;DHT22;27616;51.420;6.788;2022-08-03T07:22:18;22.60;99.90
41928;DHT22;27616;51.420;6.788;2022-08-03T07:24:43;22.70;99.90
41928;DHT22;27616;51.420;6.788;2022-08-03T07:27:10;22.80;99.90
41928;DHT22;27616;51.420;6.788;2022-08-03T07:29:36;22.80;99.90
41928;DHT22;27616;51.420;6.788;2022-08-03T07:32:03;22.80;99.80
41928;DHT22;27616;51.420;6.788;2022-08-03T07:34:30;22.90;99.70
41928;DHT22;27616;51.420;6.788;2022-08-03T07:36:56;22.90;99.60
41928;DHT22;27616;51.420;6.788;2022-08-03T07:39:22;23.00;99.60
41928;DHT22;27616;51.420;6.788;2022-08-03T07:41:48;23.00;99.50
41928;DHT22;27616;51.420;6.788;2022-08-03T07:44:18;23.00;99.50
41928;DHT22;27616;51.420;6.788;2022-08-03T07:46:44;23.10;99.40
41928;DHT22;27616;51.420;6.788;2022-08-03T07:49:10;23.20;99.10
41928;DHT22;27616;51.420;6.788;2022-08-03T07:51:36;23.20;98.90
41928;DHT22;27616;51.420;6.788;2022-08-03T07:54:03;23.30;98.80
41928;DHT22;27616;51.420;6.788;2022-08-03T07:56:29;23.30;98.70
41928;DHT22;27616;51.420;6.788;2022-08-03T07:58:55;23.40;98.60
41928;DHT22;27616;51.420;6.788;2022-08-03T08:01:21;23.40;98.20
41928;DHT22;27616;51.420;6.788;2022-08-03T08:03:48;23.40;98.20
41928;DHT22;27616;51.420;6.788;2022-08-03T08:06:15;23.50;98.20
41928;DHT22;27616;51.420;6.788;2022-08-03T08:08:42;23.50;98.20
41928;DHT22;27616;51.420;6.788;2022-08-03T08:11:08;23.50;98.20
41928;DHT22;27616;51.420;6.788;2022-08-03T08:13:35;23.60;98.10
41928;DHT22;27616;51.420;6.788;2022-08-03T08:16:03;23.70;98.10
41928;DHT22;27616;51.420;6.788;2022-08-03T08:18:30;23.70;97.90
41928;DHT22;27616;51.420;6.788;2022-08-03T08:20:56;23.70;98.00
41928;DHT22;27616;51.420;6.788;2022-08-03T08:23:22;23.80;97.80
41928;DHT22;27616;51.420;6.788;2022-08-03T08:25:49;23.80;97.70
41928;DHT22;27616;51.420;6.788;2022-08-03T08:28:20;23.80;97.70
41928;DHT22;27616;51.420;6.788;2022-08-03T08:30:47;23.90;97.60
41928;DHT22;27616;51.420;6.788;2022-08-03T08:33:13;23.90;97.50
41928;DHT22;27616;51.420;6.788;2022-08-03T08:35:39;23.90;97.50
41928;DHT22;27616;51.420;6.788;2022-08-03T08:38:05;24.00;97.50
41928;DHT22;27616;51.420;6.788;2022-08-03T08:40:31;24.00;97.50
41928;DHT22;27616;51.420;6.788;2022-08-03T08:42:57;24.10;97.30
41928;DHT22;27616;51.420;6.788;2022-08-03T08:45:23;24.10;97.20
41928;DHT22;27616;51.420;6.788;2022-08-03T08:47:49;24.20;97.20
41928;DHT22;27616;51.420;6.788;2022-08-03T08:50:20;24.20;96.90
41928;DHT22;27616;51.420;6.788;2022-08-03T08:52:48;24.20;96.80
41928;DHT22;27616;51.420;6.788;2022-08-03T08:55:22;24.20;96.90
41928;DHT22;27616;51.420;6.788;2022-08-03T08:57:50;24.30;97.00
41928;DHT22;27616;51.420;6.788;2022-08-03T09:00:17;24.30;96.80
41928;DHT22;27616;51.420;6.788;2022-08-03T09:02:44;24.40;96.80
41928;DHT22;27616;51.420;6.788;2022-08-03T09:05:12;24.40;96.70
41928;DHT22;27616;51.420;6.788;2022-08-03T09:07:40;24.50;96.80
41928;DHT22;27616;51.420;6.788;2022-08-03T09:10:07;24.40;96.80
41928;DHT22;27616;51.420;6.788;2022-08-03T09:12:45;24.50;96.70
41928;DHT22;27616;51.420;6.788;2022-08-03T09:15:28;24.50;96.60
41928;DHT22;27616;51.420;6.788;2022-08-03T09:18:02;24.60;96.50
41928;DHT22;27616;51.420;6.788;2022-08-03T09:20:31;24.70;95.90
41928;DHT22;27616;51.420;6.788;2022-08-03T09:23:02;24.70;95.80
41928;DHT22;27616;51.420;6.788;2022-08-03T09:25:33;24.80;95.80
41928;DHT22;27616;51.420;6.788;2022-08-03T09:28:16;24.80;95.30
41928;DHT22;27616;51.420;6.788;2022-08-03T09:30:44;24.90;95.10
41928;DHT22;27616;51.420;6.788;2022-08-03T09:33:12;25.00;94.40
41928;DHT22;27616;51.420;6.788;2022-08-03T09:35:48;25.10;94.40
41928;DHT22;27616;51.420;6.788;2022-08-03T09:38:19;25.20;94.50
41928;DHT22;27616;51.420;6.788;2022-08-03T09:40:49;25.30;94.20
41928;DHT22;27616;51.420;6.788;2022-08-03T09:43:15;25.30;94.20
41928;DHT22;27616;51.420;6.788;2022-08-03T09:45:42;25.30;94.10
41928;DHT22;27616;51.420;6.788;2022-08-03T09:48:19;25.30;93.40
41928;DHT22;27616;51.420;6.788;2022-08-03T09:51:07;25.40;92.90
41928;DHT22;27616;51.420;6.788;2022-08-03T09:53:42;25.50;93.30
41928;DHT22;27616;51.420;6.788;2022-08-03T09:56:09;25.40;93.00
41928;DHT22;27616;51.420;6.788;2022-08-03T09:58:44;25.50;93.10
41928;DHT22;27616;51.420;6.788;2022-08-03T10:01:10;25.50;93.00
41928;DHT22;27616;51.420;6.788;2022-08-03T10:03:38;25.50;92.70
41928;DHT22;27616;51.420;6.788;2022-08-03T10:06:22;25.50;92.50
41928;DHT22;27616;51.420;6.788;2022-08-03T10:09:07;25.60;92.70
41928;DHT22;27616;51.420;6.788;2022-08-03T10:11:34;25.60;92.80
41928;DHT22;27616;51.420;6.788;2022-08-03T10:14:04;25.60;92.50
41928;DHT22;27616;51.420;6.788;2022-08-03T10:16:35;25.70;91.90
41928;DHT22;27616;51.420;6.788;2022-08-03T10:19:04;25.80;91.80
41928;DHT22;27616;51.420;6.788;2022-08-03T10:21:36;25.90;91.60
41928;DHT22;27616;51.420;6.788;2022-08-03T10:24:07;25.90;91.70
41928;DHT22;27616;51.420;6.788;2022-08-03T10:26:38;26.00;91.20
41928;DHT22;27616;51.420;6.788;2022-08-03T10:29:06;26.00;90.90
41928;DHT22;27616;51.420;6.788;2022-08-03T10:31:42;26.10;90.70
41928;DHT22;27616;51.420;6.788;2022-08-03T10:34:22;26.10;90.40
41928;DHT22;27616;51.420;6.788;2022-08-03T10:36:51;26.20;90.50
41928;DHT22;27616;51.420;6.788;2022-08-03T10:39:34;26.20;90.00
41928;DHT22;27616;51.420;6.788;2022-08-03T10:42:02;26.30;90.00
41928;DHT22;27616;51.420;6.788;2022-08-03T10:44:37;26.40;90.10
41928;DHT22;27616;51.420;6.788;2022-08-03T10:47:05;26.30;90.30
41928;DHT22;27616;51.420;6.788;2022-08-03T10:49:31;26.30;90.30
41928;DHT22;27616;51.420;6.788;2022-08-03T10:51:58;26.30;90.20
41928;DHT22;27616;51.420;6.788;2022-08-03T10:57:02;26.30;90.40
41928;DHT22;27616;51.420;6.788;2022-08-03T11:02:14;26.30;89.90
41928;DHT22;27616;51.420;6.788;2022-08-03T11:04:41;26.40;89.20
41928;DHT22;27616;51.420;6.788;2022-08-03T11:07:23;26.50;89.30
41928;DHT22;27616;51.420;6.788;2022-08-03T11:09:50;26.50;89.00
41928;DHT22;27616;51.420;6.788;2022-08-03T11:12:30;26.60;89.20
41928;DHT22;27616;51.420;6.788;2022-08-03T11:15:03;26.70;89.30
41928;DHT22;27616;51.420;6.788;2022-08-03T11:17:29;26.70;88.70
41928;DHT22;27616;51.420;6.788;2022-08-03T11:19:56;26.70;87.70
41928;DHT22;27616;51.420;6.788;2022-08-03T11:22:22;26.70;88.10
41928;DHT22;27616;51.420;6.788;2022-08-03T11:27:30;26.60;89.00
41928;DHT22;27616;51.420;6.788;2022-08-03T11:30:08;26.70;89.10
41928;DHT22;27616;51.420;6.788;2022-08-03T11:35:27;27.00;88.10
41928;DHT22;27616;51.420;6.788;2022-08-03T11:40:42;27.20;87.00
41928;DHT22;27616;51.420;6.788;2022-08-03T11:46:08;27.20;87.60
41928;DHT22;27616;51.420;6.788;2022-08-03T11:48:45;27.10;87.40
41928;DHT22;27616;51.420;6.788;2022-08-03T11:51:24;27.10;87.20
41928;DHT22;27616;51.420;6.788;2022-08-03T11:56:19;27.20;86.40
41928;DHT22;27616;51.420;6.788;2022-08-03T11:58:47;27.20;86.40
41928;DHT22;27616;51.420;6.788;2022-08-03T12:01:13;27.30;85.80
41928;DHT22;27616;51.420;6.788;2022-08-03T12:03:41;27.40;84.80
41928;DHT22;27616;51.420;6.788;2022-08-03T12:06:13;27.40;85.20
41928;DHT22;27616;51.420;6.788;2022-08-03T12:08:40;27.40;85.00
41928;DHT22;27616;51.420;6.788;2022-08-03T12:11:08;27.50;85.10
41928;DHT22;27616;51.420;6.788;2022-08-03T12:16:02;27.40;84.80
41928;DHT22;27616;51.420;6.788;2022-08-03T12:18:28;27.40;84.90
41928;DHT22;27616;51.420;6.788;2022-08-03T12:21:05;27.40;84.00
41928;DHT22;27616;51.420;6.788;2022-08-03T12:23:31;27.50;83.50
41928;DHT22;27616;51.420;6.788;2022-08-03T12:26:05;27.60;82.60
41928;DHT22;27616;51.420;6.788;2022-08-03T12:28:32;27.70;81.60
41928;DHT22;27616;51.420;6.788;2022-08-03T12:31:06;27.80;80.90
41928;DHT22;27616;51.420;6.788;2022-08-03T12:33:58;27.80;80.80
41928;DHT22;27616;51.420;6.788;2022-08-03T12:36:26;27.80;80.70
41928;DHT22;27616;51.420;6.788;2022-08-03T12:39:01;27.80;81.30
41928;DHT22;27616;51.420;6.788;2022-08-03T12:41:29;27.90;82.00
41928;DHT22;27616;51.420;6.788;2022-08-03T12:43:56;27.90;81.70
41928;DHT22;27616;51.420;6.788;2022-08-03T12:46:27;28.00;80.60
41928;DHT22;27616;51.420;6.788;2022-08-03T12:49:14;28.10;80.40
41928;DHT22;27616;51.420;6.788;2022-08-03T12:54:08;28.00;80.50
41928;DHT22;27616;51.420;6.788;2022-08-03T12:56:34;28.00;80.30
41928;DHT22;27616;51.420;6.788;2022-08-03T12:59:22;28.10;80.50
41928;DHT22;27616;51.420;6.788;2022-08-03T13:01:46;28.10;80.20
41928;DHT22;27616;51.420;6.788;2022-08-03T13:04:34;28.00;80.40
41928;DHT22;27616;51.420;6.788;2022-08-03T13:07:01;28.10;78.60
41928;DHT22;27616;51.420;6.788;2022-08-03T13:09:29;28.20;78.00
41928;DHT22;27616;51.420;6.788;2022-08-03T13:14:35;28.20;79.40
41928;DHT22;27616;51.420;6.788;2022-08-03T13:17:01;28.20;79.30
41928;DHT22;27616;51.420;6.788;2022-08-03T13:19:27;28.20;79.30
41928;DHT22;27616;51.420;6.788;2022-08-03T13:21:53;28.20;78.70
41928;DHT22;27616;51.420;6.788;2022-08-03T13:24:19;28.10;79.40
41928;DHT22;27616;51.420;6.788;2022-08-03T13:26:45;28.10;79.60
41928;DHT22;27616;51.420;6.788;2022-08-03T13:29:11;28.20;78.70
41928;DHT22;27616;51.420;6.788;2022-08-03T13:31:37;28.30;78.70
41928;DHT22;27616;51.420;6.788;2022-08-03T13:34:03;28.30;79.20
41928;DHT22;27616;51.420;6.788;2022-08-03T13:36:29;28.30;78.90
41928;DHT22;27616;51.420;6.788;2022-08-03T13:38:54;28.40;78.80
41928;DHT22;27616;51.420;6.788;2022-08-03T13:41:20;28.40;79.40
41928;DHT22;27616;51.420;6.788;2022-08-03T13:43:46;28.50;78.80
41928;DHT22;27616;51.420;6.788;2022-08-03T13:46:12;28.60;77.80
41928;DHT22;27616;51.420;6.788;2022-08-03T13:48:38;28.70;77.50
41928;DHT22;27616;51.420;6.788;2022-08-03T13:51:04;28.70;76.80
41928;DHT22;27616;51.420;6.788;2022-08-03T13:53:30;28.80;76.40
41928;DHT22;27616;51.420;6.788;2022-08-03T13:55:56;28.80;75.60
41928;DHT22;27616;51.420;6.788;2022-08-03T13:58:22;28.80;75.70
41928;DHT22;27616;51.420;6.788;2022-08-03T14:00:48;28.70;75.80
41928;DHT22;27616;51.420;6.788;2022-08-03T14:03:14;28.80;75.70
41928;DHT22;27616;51.420;6.788;2022-08-03T14:05:41;28.80;75.40
41928;DHT22;27616;51.420;6.788;2022-08-03T14:08:07;29.00;75.00
41928;DHT22;27616;51.420;6.788;2022-08-03T14:10:35;29.00;74.60
41928;DHT22;27616;51.420;6.788;2022-08-03T14:13:01;29.20;73.30
41928;DHT22;27616;51.420;6.788;2022-08-03T14:15:28;29.30;72.60
41928;DHT22;27616;51.420;6.788;2022-08-03T14:17:55;29.40;71.90
41928;DHT22;27616;51.420;6.788;2022-08-03T14:20:21;29.40;71.70
41928;DHT22;27616;51.420;6.788;2022-08-03T14:22:47;29.40;71.10
41928;DHT22;27616;51.420;6.788;2022-08-03T14:25:13;29.60;70.40
41928;DHT22;27616;51.420;6.788;2022-08-03T14:27:38;29.80;69.90
41928;DHT22;27616;51.420;6.788;2022-08-03T14:30:05;30.00;68.70
41928;DHT22;27616;51.420;6.788;2022-08-03T14:32:31;30.30;68.60
41928;DHT22;27616;51.420;6.788;2022-08-03T14:34:57;30.50;68.90
41928;DHT22;27616;51.420;6.788;2022-08-03T14:37:23;30.80;66.80
41928;DHT22;27616;51.420;6.788;2022-08-03T14:39:49;31.20;65.70
41928;DHT22;27616;51.420;6.788;2022-08-03T14:42:14;31.50;64.70
41928;DHT22;27616;51.420;6.788;2022-08-03T14:44:41;31.90;64.30
41928;DHT22;27616;51.420;6.788;2022-08-03T14:47:07;32.40;63.80
41928;DHT22;27616;51.420;6.788;2022-08-03T14:49:33;32.90;62.70
41928;DHT22;27616;51.420;6.788;2022-08-03T14:51:59;33.30;60.70
41928;DHT22;27616;51.420;6.788;2022-08-03T14:54:25;33.50;60.30
41928;DHT22;27616;51.420;6.788;2022-08-03T14:56:50;33.50;60.10
41928;DHT22;27616;51.420;6.788;2022-08-03T14:59:17;33.40;61.00
41928;DHT22;27616;51.420;6.788;2022-08-03T15:01:43;33.20;60.50
41928;DHT22;27616;51.420;6.788;2022-08-03T15:04:09;33.20;60.50
41928;DHT22;27616;51.420;6.788;2022-08-03T15:06:35;33.30;59.80
41928;DHT22;27616;51.420;6.788;2022-08-03T15:09:00;33.30;59.40
41928;DHT22;27616;51.420;6.788;2022-08-03T15:11:26;33.40;59.60
41928;DHT22;27616;51.420;6.788;2022-08-03T15:13:52;33.40;60.20
41928;DHT22;27616;51.420;6.788;2022-08-03T15:16:18;33.40;58.90
41928;DHT22;27616;51.420;6.788;2022-08-03T15:18:44;33.30;58.90
41928;DHT22;27616;51.420;6.788;2022-08-03T15:21:10;33.30;58.10
41928;DHT22;27616;51.420;6.788;2022-08-03T15:23:36;33.10;58.30
41928;DHT22;27616;51.420;6.788;2022-08-03T15:26:02;32.90;58.60
41928;DHT22;27616;51.420;6.788;2022-08-03T15:28:28;32.90;59.00
41928;DHT22;27616;51.420;6.788;2022-08-03T15:30:54;32.60;58.80
41928;DHT22;27616;51.420;6.788;2022-08-03T15:33:20;32.50;59.70
41928;DHT22;27616;51.420;6.788;2022-08-03T15:35:46;32.40;60.10
41928;DHT22;27616;51.420;6.788;2022-08-03T15:38:12;32.20;59.90
41928;DHT22;27616;51.420;6.788;2022-08-03T15:40:38;32.10;60.00
41928;DHT22;27616;51.420;6.788;2022-08-03T15:43:04;31.80;60.50
41928;DHT22;27616;51.420;6.788;2022-08-03T15:45:30;31.60;61.30
41928;DHT22;27616;51.420;6.788;2022-08-03T15:47:56;31.40;61.60
41928;DHT22;27616;51.420;6.788;2022-08-03T15:50:22;31.30;61.80
41928;DHT22;27616;51.420;6.788;2022-08-03T15:52:48;31.10;62.10
41928;DHT22;27616;51.420;6.788;2022-08-03T15:55:14;31.00;63.30
41928;DHT22;27616;51.420;6.788;2022-08-03T15:57:40;30.70;63.30
41928;DHT22;27616;51.420;6.788;2022-08-03T16:00:06;30.60;64.30
41928;DHT22;27616;51.420;6.788;2022-08-03T16:02:34;30.50;64.30
41928;DHT22;27616;51.420;6.788;2022-08-03T16:05:00;30.60;64.40
41928;DHT22;27616;51.420;6.788;2022-08-03T16:07:26;30.50;64.90
41928;DHT22;27616;51.420;6.788;2022-08-03T16:10:08;30.40;65.60
41928;DHT22;27616;51.420;6.788;2022-08-03T16:12:35;30.20;66.10
41928;DHT22;27616;51.420;6.788;2022-08-03T16:15:03;30.10;66.30